createdAt,value
2019-01-17T00:26:58.915Z,994.88
2019-01-17T00:26:59.480Z,994.83
2019-01-17T00:27:00.082Z,994.81
2019-01-17T00:27:00.679Z,994.78
2019-01-17T00:27:01.279Z,994.76
2019-01-17T00:27:01.880Z,994.75
2019-01-17T00:27:02.479Z,994.81
2019-01-17T00:27:03.079Z,994.80
2019-01-17T00:27:57.584Z,994.86
2019-01-17T00:27:58.157Z,994.85
2019-01-17T00:27:58.757Z,994.76
2019-01-17T00:27:59.356Z,994.82
2019-01-17T00:27:59.956Z,994.78
2019-01-17T00:28:00.555Z,994.79
2019-01-17T00:28:01.155Z,994.78
2019-01-17T00:28:01.755Z,994.77
2019-01-17T00:28:56.260Z,994.88
2019-01-17T00:28:56.834Z,994.88
2019-01-17T00:28:57.433Z,994.86
2019-01-17T00:28:58.032Z,994.80
2019-01-17T00:28:58.634Z,994.81
2019-01-17T00:28:59.233Z,994.79
2019-01-17T00:28:59.832Z,994.80
2019-01-17T00:29:00.431Z,994.75
2019-01-17T00:29:54.935Z,994.87
2019-01-17T00:29:55.508Z,994.86
2019-01-17T00:29:56.109Z,994.82
2019-01-17T00:29:56.726Z,994.86
2019-01-17T00:29:57.312Z,994.86
2019-01-17T00:29:57.908Z,994.85
2019-01-17T00:29:58.509Z,994.84
2019-01-17T00:29:59.107Z,994.79
2019-01-17T00:30:52.589Z,994.85
2019-01-17T00:30:54.137Z,994.82
2019-01-17T00:30:54.638Z,994.80
2019-01-17T00:30:55.237Z,994.80
2019-01-17T00:30:55.837Z,994.83
2019-01-17T00:30:56.436Z,994.78
2019-01-17T00:30:57.037Z,994.80
2019-01-17T00:31:52.084Z,994.85
2019-01-17T00:31:52.658Z,994.82
2019-01-17T00:31:53.256Z,994.82
2019-01-17T00:31:53.857Z,994.84
2019-01-17T00:31:54.457Z,994.84
2019-01-17T00:31:55.055Z,994.79
2019-01-17T00:31:55.657Z,994.81
2019-01-17T00:31:56.256Z,994.79
2019-01-17T00:32:50.760Z,994.86
2019-01-17T00:32:51.337Z,994.86
2019-01-17T00:32:51.933Z,994.80
2019-01-17T00:32:52.532Z,994.84
2019-01-17T00:32:53.132Z,994.80
2019-01-17T00:32:53.733Z,994.79
2019-01-17T00:32:54.332Z,994.77
2019-01-17T00:32:54.934Z,994.78
2019-01-17T00:33:48.417Z,994.86
2019-01-17T00:33:48.985Z,994.84
2019-01-17T00:33:49.584Z,994.82
2019-01-17T00:33:50.191Z,994.83
2019-01-17T00:33:50.785Z,994.82
2019-01-17T00:33:51.385Z,994.82
2019-01-17T00:33:51.984Z,994.80
2019-01-17T00:33:52.585Z,994.78
2019-01-17T00:34:46.064Z,994.88
2019-01-17T00:34:46.637Z,994.88
2019-01-17T00:34:47.237Z,994.86
2019-01-17T00:34:47.837Z,994.85
2019-01-17T00:34:48.436Z,994.85
2019-01-17T00:34:49.038Z,994.83
2019-01-17T00:34:49.647Z,994.84
2019-01-17T00:34:50.237Z,994.81
2019-01-17T00:35:43.720Z,994.90
2019-01-17T00:35:44.289Z,994.85
2019-01-17T00:35:44.890Z,994.80
2019-01-17T00:35:45.489Z,994.80
2019-01-17T00:35:46.088Z,994.79
2019-01-17T00:35:46.691Z,994.83
2019-01-17T00:35:47.289Z,994.83
2019-01-17T00:35:47.889Z,994.83
2019-01-17T00:36:41.369Z,994.88
2019-01-17T00:36:41.947Z,994.85
2019-01-17T00:36:42.542Z,994.85
2019-01-17T00:36:43.143Z,994.83
2019-01-17T00:36:43.741Z,994.80
2019-01-17T00:36:44.342Z,994.80
2019-01-17T00:36:44.941Z,994.80
2019-01-17T00:36:45.541Z,994.78
2019-01-17T00:37:40.045Z,994.89
2019-01-17T00:37:40.616Z,994.86
2019-01-17T00:37:41.217Z,994.86
2019-01-17T00:37:41.817Z,994.88
2019-01-17T00:37:42.416Z,994.89
2019-01-17T00:37:43.019Z,994.90
2019-01-17T00:37:43.616Z,994.86
2019-01-17T00:37:44.217Z,994.82
2019-01-17T00:38:37.700Z,994.87
2019-01-17T00:38:38.269Z,994.89
2019-01-17T00:38:38.870Z,994.85
2019-01-17T00:38:39.469Z,994.84
2019-01-17T00:38:40.067Z,994.83
2019-01-17T00:38:40.669Z,994.84
2019-01-17T00:38:41.269Z,994.83
2019-01-17T00:38:41.868Z,994.81
2019-01-17T00:39:36.377Z,994.97
2019-01-17T00:39:36.946Z,994.92
2019-01-17T00:39:37.546Z,994.91
2019-01-17T00:39:38.144Z,994.91
2019-01-17T00:39:38.744Z,994.87
2019-01-17T00:39:39.345Z,994.85
2019-01-17T00:39:39.943Z,994.83
2019-01-17T00:39:40.544Z,994.84
2019-01-17T00:40:34.026Z,994.91
2019-01-17T00:40:34.596Z,994.91
2019-01-17T00:40:35.197Z,994.88
2019-01-17T00:40:35.800Z,994.88
2019-01-17T00:40:36.396Z,994.87
2019-01-17T00:40:36.997Z,994.86
2019-01-17T00:40:37.597Z,994.84
2019-01-17T00:40:38.196Z,994.84
2019-01-17T00:41:32.700Z,994.95
2019-01-17T00:41:33.274Z,994.93
2019-01-17T00:41:33.872Z,994.91
2019-01-17T00:41:34.472Z,994.91
2019-01-17T00:41:35.072Z,994.90
2019-01-17T00:41:35.673Z,994.87
2019-01-17T00:41:36.271Z,994.86
2019-01-17T00:41:36.871Z,994.85
2019-01-17T00:42:30.392Z,994.88
2019-01-17T00:42:30.927Z,994.89
2019-01-17T00:42:31.528Z,994.84
2019-01-17T00:42:32.162Z,994.91
2019-01-17T00:42:32.725Z,994.85
2019-01-17T00:42:33.324Z,994.89
2019-01-17T00:42:33.924Z,994.85
2019-01-17T00:42:34.533Z,994.90
2019-01-17T00:43:28.006Z,994.91
2019-01-17T00:43:28.576Z,994.84
2019-01-17T00:43:29.176Z,994.88
2019-01-17T00:43:29.779Z,994.90
2019-01-17T00:43:30.377Z,994.86
2019-01-17T00:43:30.978Z,994.87
2019-01-17T00:43:31.578Z,994.83
2019-01-17T00:43:32.175Z,994.82
2019-01-17T00:44:26.679Z,994.87
2019-01-17T00:44:27.252Z,994.87
2019-01-17T00:44:27.851Z,994.84
2019-01-17T00:44:28.453Z,994.83
2019-01-17T00:44:29.054Z,994.86
2019-01-17T00:44:29.652Z,994.82
2019-01-17T00:44:30.250Z,994.84
2019-01-17T00:44:30.851Z,994.81
2019-01-17T00:45:25.355Z,994.89
2019-01-17T00:45:25.931Z,994.85
2019-01-17T00:45:26.527Z,994.87
2019-01-17T00:45:27.129Z,994.84
2019-01-17T00:45:27.727Z,994.86
2019-01-17T00:45:28.332Z,994.86
2019-01-17T00:45:28.944Z,994.86
2019-01-17T00:45:29.526Z,994.86
2019-01-17T00:46:23.015Z,994.89
2019-01-17T00:46:23.586Z,994.88
2019-01-17T00:46:24.224Z,994.87
2019-01-17T00:46:24.784Z,994.85
2019-01-17T00:46:25.377Z,994.82
2019-01-17T00:46:25.977Z,994.83
2019-01-17T00:46:26.577Z,994.81
2019-01-17T00:46:27.177Z,994.82
2019-01-17T00:47:21.682Z,994.84
2019-01-17T00:47:22.254Z,994.86
2019-01-17T00:47:22.855Z,994.83
2019-01-17T00:47:23.459Z,994.80
2019-01-17T00:47:24.055Z,994.84
2019-01-17T00:47:24.655Z,994.82
2019-01-17T00:47:25.256Z,994.83
2019-01-17T00:47:25.898Z,994.83
2019-01-17T00:48:19.336Z,994.95
2019-01-17T00:48:19.908Z,994.93
2019-01-17T00:48:20.507Z,994.92
2019-01-17T00:48:21.107Z,994.92
2019-01-17T00:48:21.706Z,994.91
2019-01-17T00:48:22.307Z,994.90
2019-01-17T00:48:22.907Z,994.93
2019-01-17T00:48:23.508Z,994.90
2019-01-17T00:49:16.989Z,994.95
2019-01-17T00:49:17.557Z,994.91
2019-01-17T00:49:18.157Z,994.89
2019-01-17T00:49:18.762Z,994.90
2019-01-17T00:49:19.359Z,994.95
2019-01-17T00:49:19.962Z,994.97
2019-01-17T00:49:20.557Z,994.93
2019-01-17T00:49:21.156Z,994.93
2019-01-17T00:50:15.661Z,994.98
2019-01-17T00:50:16.234Z,994.98
2019-01-17T00:50:16.833Z,994.97
2019-01-17T00:50:17.434Z,994.94
2019-01-17T00:50:18.034Z,994.96
2019-01-17T00:50:18.633Z,994.96
2019-01-17T00:50:19.233Z,994.99
2019-01-17T00:50:19.834Z,994.99
2019-01-17T00:51:13.314Z,995.00
2019-01-17T00:51:13.886Z,994.98
2019-01-17T00:51:14.487Z,994.99
2019-01-17T00:51:15.087Z,994.94
2019-01-17T00:51:15.686Z,994.95
2019-01-17T00:51:16.287Z,994.94
2019-01-17T00:51:16.886Z,994.88
2019-01-17T00:51:17.485Z,994.89
2019-01-17T00:52:11.990Z,994.94
2019-01-17T00:52:12.562Z,994.91
2019-01-17T00:52:13.165Z,994.88
2019-01-17T00:52:13.797Z,994.93
2019-01-17T00:52:14.361Z,994.91
2019-01-17T00:52:14.959Z,994.97
2019-01-17T00:52:15.558Z,994.94
2019-01-17T00:52:16.172Z,994.91
2019-01-17T00:53:10.667Z,994.96
2019-01-17T00:53:11.247Z,994.95
2019-01-17T00:53:11.862Z,994.92
2019-01-17T00:53:12.448Z,994.94
2019-01-17T00:53:13.040Z,994.91
2019-01-17T00:53:13.636Z,994.89
2019-01-17T00:53:14.240Z,994.91
2019-01-17T00:53:14.837Z,994.93
2019-01-17T00:54:09.164Z,994.98
2019-01-17T00:54:09.207Z,994.99
2019-01-17T00:54:09.502Z,994.96
2019-01-17T00:54:10.090Z,994.92
2019-01-17T00:54:10.695Z,994.92
2019-01-17T00:54:11.291Z,994.90
2019-01-17T00:54:11.913Z,994.89
2019-01-17T00:54:12.487Z,994.87
2019-01-17T00:55:06.992Z,994.91
2019-01-17T00:55:07.564Z,994.94
2019-01-17T00:55:08.165Z,994.91
2019-01-17T00:55:08.764Z,994.90
2019-01-17T00:55:09.365Z,994.94
2019-01-17T00:55:09.964Z,994.90
2019-01-17T00:55:10.596Z,994.90
2019-01-17T00:55:11.172Z,994.90
2019-01-17T00:56:04.644Z,994.92
2019-01-17T00:56:05.219Z,994.88
2019-01-17T00:56:05.818Z,994.91
2019-01-17T00:56:06.418Z,994.93
2019-01-17T00:56:07.017Z,994.96
2019-01-17T00:56:07.618Z,994.94
2019-01-17T00:56:08.218Z,994.93
2019-01-17T00:56:08.829Z,994.95
2019-01-17T00:57:02.297Z,995.04
2019-01-17T00:57:02.870Z,995.02
2019-01-17T00:57:03.486Z,995.01
2019-01-17T00:57:04.069Z,994.98
2019-01-17T00:57:04.669Z,994.96
2019-01-17T00:57:05.278Z,994.97
2019-01-17T00:57:05.907Z,994.95
2019-01-17T00:57:06.467Z,994.85
2019-01-17T00:57:59.949Z,995.01
2019-01-17T00:58:00.525Z,994.97
2019-01-17T00:58:01.121Z,995.00
2019-01-17T00:58:01.721Z,994.98
2019-01-17T00:58:02.319Z,994.98
2019-01-17T00:58:02.922Z,994.95
2019-01-17T00:58:03.520Z,994.95
2019-01-17T00:58:04.119Z,994.96
2019-01-17T00:58:57.600Z,994.97
2019-01-17T00:58:58.172Z,994.97
2019-01-17T00:58:58.771Z,994.96
2019-01-17T00:58:59.372Z,994.94
2019-01-17T00:58:59.972Z,994.93
2019-01-17T00:59:00.573Z,994.93
2019-01-17T00:59:01.171Z,994.90
2019-01-17T00:59:01.776Z,994.88
2019-01-17T00:59:55.253Z,995.00
2019-01-17T00:59:55.825Z,994.95
2019-01-17T00:59:56.423Z,994.96
2019-01-17T00:59:57.023Z,994.95
2019-01-17T00:59:57.623Z,994.94
2019-01-17T00:59:58.223Z,994.97
2019-01-17T00:59:58.825Z,994.98
2019-01-17T00:59:59.423Z,994.96
2019-01-17T01:00:52.903Z,995.01
2019-01-17T01:00:53.476Z,995.04
2019-01-17T01:00:54.076Z,995.03
2019-01-17T01:00:54.681Z,995.00
2019-01-17T01:00:55.276Z,995.01
2019-01-17T01:00:55.880Z,995.01
2019-01-17T01:00:56.480Z,994.98
2019-01-17T01:00:57.078Z,994.97
2019-01-17T01:01:50.554Z,995.01
2019-01-17T01:01:51.128Z,995.00
2019-01-17T01:01:51.728Z,995.00
2019-01-17T01:01:52.327Z,994.99
2019-01-17T01:01:52.929Z,994.95
2019-01-17T01:01:53.532Z,995.00
2019-01-17T01:01:54.128Z,994.98
2019-01-17T01:01:54.727Z,994.96
2019-01-17T01:02:48.206Z,994.97
2019-01-17T01:02:48.779Z,994.94
2019-01-17T01:02:49.379Z,994.97
2019-01-17T01:02:49.981Z,994.91
2019-01-17T01:02:50.578Z,994.94
2019-01-17T01:02:51.178Z,994.93
2019-01-17T01:02:51.781Z,994.95
2019-01-17T01:02:52.379Z,994.96
2019-01-17T01:03:45.859Z,994.96
2019-01-17T01:03:46.431Z,994.92
2019-01-17T01:03:47.033Z,994.93
2019-01-17T01:03:47.630Z,994.92
2019-01-17T01:03:48.231Z,994.91
2019-01-17T01:03:48.832Z,994.94
2019-01-17T01:03:49.450Z,994.92
2019-01-17T01:03:50.029Z,994.92
2019-01-17T01:04:44.535Z,995.01
2019-01-17T01:04:45.107Z,994.97
2019-01-17T01:04:45.705Z,994.98
2019-01-17T01:04:46.305Z,994.96
2019-01-17T01:04:46.946Z,995.00
2019-01-17T01:04:47.505Z,994.96
2019-01-17T01:04:48.105Z,994.95
2019-01-17T01:04:48.704Z,994.95
2019-01-17T01:05:42.187Z,994.99
2019-01-17T01:05:42.789Z,995.00
2019-01-17T01:05:43.372Z,994.97
2019-01-17T01:05:43.958Z,994.96
2019-01-17T01:05:44.558Z,994.96
2019-01-17T01:05:45.158Z,994.93
2019-01-17T01:05:45.758Z,994.92
2019-01-17T01:05:46.359Z,994.94
2019-01-17T01:06:39.851Z,995.04
2019-01-17T01:06:40.412Z,995.02
2019-01-17T01:06:41.011Z,995.00
2019-01-17T01:06:41.611Z,995.02
2019-01-17T01:06:42.210Z,994.98
2019-01-17T01:06:42.811Z,994.98
2019-01-17T01:06:43.412Z,994.97
2019-01-17T01:06:44.011Z,994.94
2019-01-17T01:07:37.489Z,995.11
2019-01-17T01:07:38.062Z,995.11
2019-01-17T01:07:38.661Z,995.08
2019-01-17T01:07:39.262Z,995.07
2019-01-17T01:07:39.861Z,995.10
2019-01-17T01:07:40.463Z,995.07
2019-01-17T01:07:41.060Z,995.13
2019-01-17T01:07:41.660Z,995.08
2019-01-17T01:08:36.165Z,995.14
2019-01-17T01:08:36.740Z,995.07
2019-01-17T01:08:37.337Z,995.06
2019-01-17T01:08:37.937Z,995.06
2019-01-17T01:08:38.536Z,995.04
2019-01-17T01:08:39.137Z,995.04
2019-01-17T01:08:39.741Z,995.03
2019-01-17T01:08:40.336Z,994.99
2019-01-17T01:09:33.817Z,995.09
2019-01-17T01:09:34.389Z,995.08
2019-01-17T01:09:34.988Z,995.10
2019-01-17T01:09:35.589Z,995.09
2019-01-17T01:09:36.192Z,995.08
2019-01-17T01:09:36.788Z,995.12
2019-01-17T01:09:37.389Z,995.10
2019-01-17T01:09:37.988Z,995.06
2019-01-17T01:10:31.468Z,995.07
2019-01-17T01:10:32.041Z,995.06
2019-01-17T01:10:32.644Z,995.04
2019-01-17T01:10:33.242Z,995.05
2019-01-17T01:10:33.845Z,995.04
2019-01-17T01:10:34.442Z,995.04
2019-01-17T01:10:35.041Z,995.03
2019-01-17T01:10:35.640Z,995.02
2019-01-17T01:11:30.143Z,995.13
2019-01-17T01:11:30.717Z,995.09
2019-01-17T01:11:31.315Z,995.12
2019-01-17T01:11:31.915Z,995.09
2019-01-17T01:11:32.518Z,995.11
2019-01-17T01:11:33.114Z,995.08
2019-01-17T01:11:33.714Z,995.11
2019-01-17T01:11:34.315Z,995.05
2019-01-17T01:12:27.795Z,995.16
2019-01-17T01:12:28.369Z,995.17
2019-01-17T01:12:28.969Z,995.18
2019-01-17T01:12:29.569Z,995.18
2019-01-17T01:12:30.169Z,995.15
2019-01-17T01:12:30.768Z,995.13
2019-01-17T01:12:31.370Z,995.12
2019-01-17T01:12:31.967Z,995.12
2019-01-17T01:13:25.452Z,995.22
2019-01-17T01:13:26.020Z,995.18
2019-01-17T01:13:26.620Z,995.16
2019-01-17T01:13:27.248Z,995.17
2019-01-17T01:13:27.819Z,995.13
2019-01-17T01:13:28.421Z,995.16
2019-01-17T01:13:29.017Z,995.16
2019-01-17T01:13:29.617Z,995.15
2019-01-17T01:14:23.099Z,995.27
2019-01-17T01:14:23.672Z,995.29
2019-01-17T01:14:24.273Z,995.26
2019-01-17T01:14:24.872Z,995.22
2019-01-17T01:14:25.474Z,995.19
2019-01-17T01:14:26.071Z,995.16
2019-01-17T01:14:26.671Z,995.17
2019-01-17T01:14:27.271Z,995.17
2019-01-17T01:15:20.753Z,995.24
2019-01-17T01:15:21.324Z,995.25
2019-01-17T01:15:21.924Z,995.21
2019-01-17T01:15:22.524Z,995.21
2019-01-17T01:15:23.123Z,995.20
2019-01-17T01:15:23.724Z,995.21
2019-01-17T01:15:24.329Z,995.16
2019-01-17T01:15:24.923Z,995.21
2019-01-17T01:16:18.403Z,995.30
2019-01-17T01:16:18.976Z,995.31
2019-01-17T01:16:19.576Z,995.26
2019-01-17T01:16:20.176Z,995.29
2019-01-17T01:16:20.774Z,995.28
2019-01-17T01:16:21.374Z,995.26
2019-01-17T01:16:21.975Z,995.30
2019-01-17T01:16:22.576Z,995.29
2019-01-17T01:17:17.076Z,995.33
2019-01-17T01:17:17.652Z,995.31
2019-01-17T01:17:18.250Z,995.33
2019-01-17T01:17:18.849Z,995.35
2019-01-17T01:17:19.451Z,995.34
2019-01-17T01:17:20.050Z,995.31
2019-01-17T01:17:20.650Z,995.37
2019-01-17T01:17:21.249Z,995.36
2019-01-17T01:18:15.757Z,995.46
2019-01-17T01:18:16.334Z,995.42
2019-01-17T01:18:16.926Z,995.37
2019-01-17T01:18:17.526Z,995.39
2019-01-17T01:18:18.126Z,995.41
2019-01-17T01:18:18.725Z,995.42
2019-01-17T01:18:19.328Z,995.43
2019-01-17T01:18:19.925Z,995.40
2019-01-17T01:19:13.509Z,995.46
2019-01-17T01:19:14.083Z,995.47
2019-01-17T01:19:14.683Z,995.46
2019-01-17T01:19:15.280Z,995.51
2019-01-17T01:19:15.881Z,995.47
2019-01-17T01:19:16.514Z,995.48
2019-01-17T01:19:17.088Z,995.44
2019-01-17T01:19:17.678Z,995.47
2019-01-17T01:20:11.161Z,995.49
2019-01-17T01:20:11.732Z,995.50
2019-01-17T01:20:12.332Z,995.49
2019-01-17T01:20:12.932Z,995.49
2019-01-17T01:20:13.540Z,995.49
2019-01-17T01:20:14.133Z,995.49
2019-01-17T01:20:14.732Z,995.48
2019-01-17T01:20:15.332Z,995.53
2019-01-17T01:21:08.811Z,995.52
2019-01-17T01:21:09.384Z,995.51
2019-01-17T01:21:09.986Z,995.51
2019-01-17T01:21:10.585Z,995.50
2019-01-17T01:21:11.183Z,995.48
2019-01-17T01:21:11.783Z,995.46
2019-01-17T01:21:12.385Z,995.48
2019-01-17T01:21:12.990Z,995.50
2019-01-17T01:22:07.488Z,995.54
2019-01-17T01:22:08.060Z,995.53
2019-01-17T01:22:08.659Z,995.54
2019-01-17T01:22:09.259Z,995.56
2019-01-17T01:22:09.859Z,995.54
2019-01-17T01:22:10.461Z,995.53
2019-01-17T01:22:11.059Z,995.53
2019-01-17T01:22:11.658Z,995.52
2019-01-17T01:23:06.177Z,995.55
2019-01-17T01:23:06.735Z,995.50
2019-01-17T01:23:07.337Z,995.51
2019-01-17T01:23:07.937Z,995.47
2019-01-17T01:23:08.535Z,995.52
2019-01-17T01:23:09.136Z,995.51
2019-01-17T01:23:09.734Z,995.52
2019-01-17T01:23:10.336Z,995.52
2019-01-17T01:24:04.905Z,995.51
2019-01-17T01:24:05.410Z,995.50
2019-01-17T01:24:06.011Z,995.49
2019-01-17T01:24:06.610Z,995.45
2019-01-17T01:24:07.209Z,995.54
2019-01-17T01:24:07.811Z,995.50
2019-01-17T01:24:08.410Z,995.53
2019-01-17T01:24:09.009Z,995.56
2019-01-17T01:25:03.512Z,995.47
2019-01-17T01:25:04.086Z,995.45
2019-01-17T01:25:04.687Z,995.45
2019-01-17T01:25:05.285Z,995.44
2019-01-17T01:25:05.887Z,995.44
2019-01-17T01:25:06.488Z,995.42
2019-01-17T01:25:07.085Z,995.42
2019-01-17T01:25:07.686Z,995.43
2019-01-17T01:26:02.190Z,995.54
2019-01-17T01:26:02.761Z,995.53
2019-01-17T01:26:03.362Z,995.54
2019-01-17T01:26:03.963Z,995.53
2019-01-17T01:26:04.560Z,995.53
2019-01-17T01:26:05.161Z,995.52
2019-01-17T01:26:05.764Z,995.49
2019-01-17T01:26:06.361Z,995.47
2019-01-17T01:27:00.865Z,995.39
2019-01-17T01:27:01.437Z,995.37
2019-01-17T01:27:02.036Z,995.33
2019-01-17T01:27:02.637Z,995.34
2019-01-17T01:27:03.238Z,995.38
2019-01-17T01:27:03.837Z,995.39
2019-01-17T01:27:04.436Z,995.41
2019-01-17T01:27:05.057Z,995.42
2019-01-17T01:27:59.542Z,995.47
2019-01-17T01:28:00.115Z,995.48
2019-01-17T01:28:00.723Z,995.45
2019-01-17T01:28:01.313Z,995.47
2019-01-17T01:28:01.912Z,995.46
2019-01-17T01:28:02.513Z,995.44
2019-01-17T01:28:03.114Z,995.42
2019-01-17T01:28:03.712Z,995.44
2019-01-17T01:28:57.193Z,995.46
2019-01-17T01:28:57.765Z,995.46
2019-01-17T01:28:58.366Z,995.46
2019-01-17T01:28:58.969Z,995.44
2019-01-17T01:28:59.568Z,995.45
2019-01-17T01:29:00.166Z,995.44
2019-01-17T01:29:00.765Z,995.44
2019-01-17T01:29:01.367Z,995.42
2019-01-17T01:29:55.867Z,995.44
2019-01-17T01:29:56.442Z,995.45
2019-01-17T01:29:57.064Z,995.43
2019-01-17T01:29:57.640Z,995.42
2019-01-17T01:29:58.239Z,995.43
2019-01-17T01:29:58.861Z,995.48
2019-01-17T01:29:59.437Z,995.43
2019-01-17T01:30:00.041Z,995.44
2019-01-17T01:30:53.625Z,995.37
2019-01-17T01:30:54.196Z,995.41
2019-01-17T01:30:54.797Z,995.40
2019-01-17T01:30:55.395Z,995.38
2019-01-17T01:30:55.995Z,995.41
2019-01-17T01:30:56.596Z,995.43
2019-01-17T01:30:57.196Z,995.42
2019-01-17T01:30:57.798Z,995.39
2019-01-17T01:31:52.322Z,995.37
2019-01-17T01:31:52.870Z,995.40
2019-01-17T01:31:53.471Z,995.37
2019-01-17T01:31:54.067Z,995.36
2019-01-17T01:31:54.668Z,995.40
2019-01-17T01:31:55.268Z,995.39
2019-01-17T01:31:55.867Z,995.38
2019-01-17T01:31:56.467Z,995.37
2019-01-17T01:32:49.950Z,995.44
2019-01-17T01:32:50.524Z,995.41
2019-01-17T01:32:51.122Z,995.39
2019-01-17T01:32:51.722Z,995.38
2019-01-17T01:32:52.322Z,995.41
2019-01-17T01:32:52.924Z,995.41
2019-01-17T01:32:53.524Z,995.40
2019-01-17T01:32:54.125Z,995.39
2019-01-17T01:33:47.602Z,995.34
2019-01-17T01:33:48.174Z,995.36
2019-01-17T01:33:48.774Z,995.32
2019-01-17T01:33:49.373Z,995.37
2019-01-17T01:33:49.976Z,995.37
2019-01-17T01:33:50.574Z,995.34
2019-01-17T01:33:51.175Z,995.30
2019-01-17T01:33:51.773Z,995.34
2019-01-17T01:34:57.981Z,995.37
2019-01-17T01:34:58.523Z,995.36
2019-01-17T01:34:59.124Z,995.31
2019-01-17T01:34:59.723Z,995.31
2019-01-17T01:35:00.324Z,995.32
2019-01-17T01:35:00.957Z,995.36
2019-01-17T01:35:01.522Z,995.33
2019-01-17T01:35:02.122Z,995.36
2019-01-17T01:35:56.626Z,995.29
2019-01-17T01:35:57.198Z,995.26
2019-01-17T01:35:57.798Z,995.28
2019-01-17T01:35:58.397Z,995.29
2019-01-17T01:35:58.998Z,995.29
2019-01-17T01:35:59.597Z,995.31
2019-01-17T01:36:00.203Z,995.31
2019-01-17T01:36:00.800Z,995.31
2019-01-17T01:36:54.278Z,995.32
2019-01-17T01:36:54.851Z,995.29
2019-01-17T01:36:55.451Z,995.28
2019-01-17T01:36:56.051Z,995.30
2019-01-17T01:36:56.651Z,995.28
2019-01-17T01:36:57.250Z,995.30
2019-01-17T01:36:57.850Z,995.31
2019-01-17T01:36:58.451Z,995.30
2019-01-17T01:37:52.953Z,995.25
2019-01-17T01:37:53.527Z,995.24
2019-01-17T01:37:54.126Z,995.23
2019-01-17T01:37:54.727Z,995.26
2019-01-17T01:37:55.329Z,995.23
2019-01-17T01:37:55.926Z,995.25
2019-01-17T01:37:56.526Z,995.23
2019-01-17T01:37:57.125Z,995.21
2019-01-17T01:38:51.629Z,995.27
2019-01-17T01:38:52.202Z,995.31
2019-01-17T01:38:52.809Z,995.27
2019-01-17T01:38:53.401Z,995.27
2019-01-17T01:38:54.001Z,995.28
2019-01-17T01:38:54.601Z,995.28
2019-01-17T01:38:55.202Z,995.26
2019-01-17T01:38:55.801Z,995.26
2019-01-17T01:39:50.305Z,995.28
2019-01-17T01:39:50.879Z,995.28
2019-01-17T01:39:51.477Z,995.27
2019-01-17T01:39:52.077Z,995.22
2019-01-17T01:39:52.678Z,995.28
2019-01-17T01:39:53.277Z,995.28
2019-01-17T01:39:53.883Z,995.26
2019-01-17T01:39:54.476Z,995.27
2019-01-17T01:40:48.980Z,995.29
2019-01-17T01:40:49.553Z,995.29
2019-01-17T01:40:50.153Z,995.33
2019-01-17T01:40:50.756Z,995.27
2019-01-17T01:40:51.353Z,995.29
2019-01-17T01:40:51.955Z,995.28
2019-01-17T01:40:52.553Z,995.29
2019-01-17T01:40:53.152Z,995.30
2019-01-17T01:41:46.632Z,995.24
2019-01-17T01:41:47.206Z,995.22
2019-01-17T01:41:47.856Z,995.25
2019-01-17T01:41:48.404Z,995.27
2019-01-17T01:41:49.005Z,995.26
2019-01-17T01:41:49.608Z,995.27
2019-01-17T01:41:50.207Z,995.24
2019-01-17T01:41:50.804Z,995.25
2019-01-17T01:42:44.284Z,995.28
2019-01-17T01:42:44.858Z,995.31
2019-01-17T01:42:45.457Z,995.29
2019-01-17T01:42:46.057Z,995.28
2019-01-17T01:42:46.657Z,995.28
2019-01-17T01:42:47.257Z,995.24
2019-01-17T01:42:47.856Z,995.25
2019-01-17T01:42:48.456Z,995.23
2019-01-17T01:43:41.942Z,995.26
2019-01-17T01:43:42.509Z,995.27
2019-01-17T01:43:43.107Z,995.28
2019-01-17T01:43:43.710Z,995.27
2019-01-17T01:43:44.309Z,995.25
2019-01-17T01:43:44.909Z,995.27
2019-01-17T01:43:45.510Z,995.28
2019-01-17T01:43:46.109Z,995.27
2019-01-17T01:44:39.589Z,995.29
2019-01-17T01:44:40.160Z,995.31
2019-01-17T01:44:40.762Z,995.31
2019-01-17T01:44:41.361Z,995.30
2019-01-17T01:44:41.960Z,995.30
2019-01-17T01:44:42.560Z,995.29
2019-01-17T01:44:43.161Z,995.27
2019-01-17T01:44:43.760Z,995.27
2019-01-17T01:45:37.244Z,995.32
2019-01-17T01:45:37.814Z,995.32
2019-01-17T01:45:38.414Z,995.33
2019-01-17T01:45:39.015Z,995.33
2019-01-17T01:45:39.614Z,995.35
2019-01-17T01:45:40.214Z,995.33
2019-01-17T01:45:40.812Z,995.34
2019-01-17T01:45:41.411Z,995.30
2019-01-17T01:46:34.894Z,995.38
2019-01-17T01:46:35.464Z,995.38
2019-01-17T01:46:36.063Z,995.36
2019-01-17T01:46:36.666Z,995.36
2019-01-17T01:46:37.265Z,995.33
2019-01-17T01:46:37.886Z,995.36
2019-01-17T01:46:38.479Z,995.36
2019-01-17T01:46:39.064Z,995.35
2019-01-17T01:47:32.548Z,995.38
2019-01-17T01:47:33.117Z,995.38
2019-01-17T01:47:33.715Z,995.40
2019-01-17T01:47:34.316Z,995.39
2019-01-17T01:47:34.949Z,995.39
2019-01-17T01:47:35.519Z,995.37
2019-01-17T01:47:36.118Z,995.40
2019-01-17T01:47:36.715Z,995.38
2019-01-17T01:48:30.198Z,995.41
2019-01-17T01:48:30.768Z,995.41
2019-01-17T01:48:31.367Z,995.45
2019-01-17T01:48:31.968Z,995.39
2019-01-17T01:48:32.566Z,995.42
2019-01-17T01:48:33.167Z,995.39
2019-01-17T01:48:33.767Z,995.39
2019-01-17T01:48:34.369Z,995.40
2019-01-17T01:49:27.847Z,995.43
2019-01-17T01:49:28.421Z,995.37
2019-01-17T01:49:29.019Z,995.41
2019-01-17T01:49:29.619Z,995.42
2019-01-17T01:49:30.218Z,995.39
2019-01-17T01:49:30.823Z,995.44
2019-01-17T01:49:31.421Z,995.39
2019-01-17T01:49:32.018Z,995.38
2019-01-17T01:50:25.498Z,995.39
2019-01-17T01:50:26.071Z,995.37
2019-01-17T01:50:26.670Z,995.36
2019-01-17T01:50:27.277Z,995.36
2019-01-17T01:50:27.871Z,995.36
2019-01-17T01:50:28.470Z,995.37
2019-01-17T01:50:29.070Z,995.37
2019-01-17T01:50:29.670Z,995.35
2019-01-17T01:51:23.151Z,995.38
2019-01-17T01:51:23.723Z,995.39
2019-01-17T01:51:24.323Z,995.37
2019-01-17T01:51:24.924Z,995.37
2019-01-17T01:51:25.522Z,995.37
2019-01-17T01:51:26.122Z,995.39
2019-01-17T01:51:26.723Z,995.39
2019-01-17T01:51:27.322Z,995.37
2019-01-17T01:52:20.807Z,995.41
2019-01-17T01:52:21.375Z,995.38
2019-01-17T01:52:21.976Z,995.41
2019-01-17T01:52:22.575Z,995.39
2019-01-17T01:52:23.173Z,995.39
2019-01-17T01:52:23.775Z,995.35
2019-01-17T01:52:24.374Z,995.39
2019-01-17T01:52:24.975Z,995.36
2019-01-17T01:53:18.457Z,995.35
2019-01-17T01:53:19.028Z,995.35
2019-01-17T01:53:19.627Z,995.35
2019-01-17T01:53:20.226Z,995.36
2019-01-17T01:53:20.824Z,995.35
2019-01-17T01:53:21.424Z,995.33
2019-01-17T01:53:22.024Z,995.36
2019-01-17T01:53:22.624Z,995.37
2019-01-17T01:54:21.850Z,995.35
2019-01-17T01:54:21.958Z,995.35
2019-01-17T01:54:21.976Z,995.34
2019-01-17T01:54:21.989Z,995.35
2019-01-17T01:54:22.028Z,995.38
2019-01-17T01:54:22.075Z,995.33
2019-01-17T01:54:22.115Z,995.36
2019-01-17T01:54:22.155Z,995.35
2019-01-17T01:55:13.861Z,995.36
2019-01-17T01:55:14.435Z,995.31
2019-01-17T01:55:15.033Z,995.36
2019-01-17T01:55:15.635Z,995.33
2019-01-17T01:55:16.232Z,995.38
2019-01-17T01:55:16.833Z,995.35
2019-01-17T01:55:17.433Z,995.33
2019-01-17T01:55:18.032Z,995.32
2019-01-17T01:56:12.534Z,995.35
2019-01-17T01:56:13.108Z,995.34
2019-01-17T01:56:13.708Z,995.34
2019-01-17T01:56:14.307Z,995.32
2019-01-17T01:56:14.908Z,995.33
2019-01-17T01:56:15.507Z,995.31
2019-01-17T01:56:16.106Z,995.35
2019-01-17T01:56:16.712Z,995.34
2019-01-17T01:57:10.199Z,995.38
2019-01-17T01:57:11.744Z,995.36
2019-01-17T01:57:12.245Z,995.39
2019-01-17T01:57:12.845Z,995.37
2019-01-17T01:57:13.445Z,995.43
2019-01-17T01:57:14.044Z,995.36